Valtellina — ICKF — position and weather

sailwx.info

Track history (hours):
 
Tides and Currents Weather Stations Pressure Air Temp Water Temp Dewpoint Dewpoint Depression Visibility Wind Speed Wind Dir Waves Ship Positions

Valtellina

Last reported at 2016-Feb-14 02:28 UTC. Time now 2016-Feb-14 06:00 UTC.
Position N 36°07' W 005°15'.

Length 184 m; draft 7.5 m.

Type: Tanker. MMSI: 247243900.

Date/timePositionNaut miles runAvg speedWind from/ knotsBaromVisibWave heightAir tempDewpointWater temp
2016-Feb-14 02:28N 36°07' W 005°15'4 3.0
2016-Feb-14 01:13N 36°05' W 005°19'0 0.4
2016-Feb-14 00:33N 36°05' W 005°19'4 3.5
2016-Feb-13 23:33N 36°05' W 005°15'2 2.1
2016-Feb-13 22:31N 36°05' W 005°12'3 2.8
2016-Feb-13 21:31N 36°08' W 005°12'3 2.6
2016-Feb-13 20:33N 36°07' W 005°15'4 3.8
2016-Feb-13 19:32N 36°04' W 005°18'1 0.9
2016-Feb-13 18:33N 36°04' W 005°17'1 0.6
2016-Feb-13 17:33N 36°04' W 005°16'2 2.5
2016-Feb-13 16:33N 36°05' W 005°13'216 9.8
2016-Feb-12 18:33N 36°43' W 000°49'10 9.3
2016-Feb-12 17:31N 36°45' W 000°37'29 9.7
2016-Feb-12 14:33N 36°53' W 000°02'41811.2
2016-Feb-11 01:23N 38°38' E 008°29'911.4
2016-Feb-11 00:33N 38°40' E 008°41'1111.4
2016-Feb-10 23:33N 38°44' E 008°55'1211.6
2016-Feb-10 22:32N 38°48' E 009°09'1211.7
2016-Feb-10 21:33N 38°53' E 009°22'  
2016-Feb-07 15:25N 38°59' E 009°42'1311.6
2016-Feb-07 14:19N 39°00' E 009°26'912.3
2016-Feb-07 13:33N 39°03' E 009°15'10 9.5
2016-Feb-07 12:33N 39°05' E 009°03'0 0.3
2016-Feb-07 11:33N 39°05' E 009°02'0 0.0
2016-Feb-07 10:33N 39°05' E 009°02'0 0.0
2016-Feb-07 09:33N 39°05' E 009°02'0 0.0
2016-Feb-07 08:33N 39°05' E 009°02'0 0.0
2016-Feb-07 07:33N 39°05' E 009°02'0 0.0
2016-Feb-07 06:33N 39°05' E 009°02'0 0.0
2016-Feb-07 05:33N 39°05' E 009°02'0 0.0
2016-Feb-07 04:33N 39°05' E 009°02'0 0.0
2016-Feb-07 03:33N 39°05' E 009°02'0 0.0
2016-Feb-07 02:33N 39°05' E 009°02'0 0.0
2016-Feb-07 01:30N 39°05' E 009°02'0 0.0
2016-Feb-07 00:33N 39°05' E 009°02'0 0.0
2016-Feb-06 23:33N 39°05' E 009°02'0 0.0
2016-Feb-06 22:33N 39°05' E 009°02'0 0.0
2016-Feb-06 21:33N 39°05' E 009°02'0 0.0
2016-Feb-06 20:33N 39°05' E 009°02'0 0.0
2016-Feb-06 19:33N 39°05' E 009°02'0 0.0
2016-Feb-06 18:33N 39°05' E 009°02'0 0.0
2016-Feb-06 17:33N 39°05' E 009°02'0 0.0
2016-Feb-06 16:33N 39°05' E 009°02'0 0.0
2016-Feb-06 15:30N 39°05' E 009°02'0 0.0
2016-Feb-06 14:33N 39°05' E 009°02'0 0.0
2016-Feb-06 13:33N 39°05' E 009°02'0 0.0
2016-Feb-06 12:33N 39°05' E 009°02'0 0.0
2016-Feb-06 11:33N 39°05' E 009°02'0 0.0
2016-Feb-06 10:33N 39°05' E 009°02'0 0.0
2016-Feb-06 09:33N 39°05' E 009°02'1 1.3
2016-Feb-06 08:33N 39°05' E 009°04'0 0.4
2016-Feb-06 07:31N 39°04' E 009°03'0 0.1
2016-Feb-06 06:31N 39°04' E 009°03'0 0.1
2016-Feb-06 05:31N 39°04' E 009°03'0 0.0
2016-Feb-06 04:31N 39°04' E 009°03'0 0.0
2016-Feb-06 03:31N 39°04' E 009°03'0 0.0
2016-Feb-06 02:28N 39°04' E 009°03'0 0.0
2016-Feb-06 01:31N 39°04' E 009°03'0 0.0
2016-Feb-06 00:31N 39°04' E 009°03'0 0.0
2016-Feb-05 23:31N 39°04' E 009°03'0 0.0
2016-Feb-05 22:31N 39°04' E 009°03'0 0.0
2016-Feb-05 21:31N 39°04' E 009°03'0 0.0
2016-Feb-05 20:31N 39°04' E 009°03'0 0.0
2016-Feb-05 19:31N 39°04' E 009°03'0 0.0
2016-Feb-05 18:31N 39°04' E 009°03'0 0.0
2016-Feb-05 17:31N 39°04' E 009°03'0 0.0
2016-Feb-05 16:31N 39°04' E 009°03'0 0.0
2016-Feb-05 15:31N 39°04' E 009°03'0 0.0
2016-Feb-05 14:31N 39°04' E 009°03'0 0.0
2016-Feb-05 13:31N 39°04' E 009°03'0 0.0
2016-Feb-05 12:31N 39°04' E 009°03'2 1.8
2016-Feb-05 11:33N 39°04' E 009°05'1111.4
2016-Feb-05 10:33N 38°57' E 009°17'1312.4
2016-Feb-05 09:31N 38°49' E 009°31'12811.6
2016-Feb-04 22:33N 37°48' E 011°53'1410.2
2016-Feb-04 21:12N 37°39' E 012°07'710.8
2016-Feb-04 20:31N 37°36' E 012°15'7410.4
2016-Feb-04 13:23N 37°02' E 013°38'911.3
2016-Feb-04 12:33N 36°58' E 013°49'1111.2
2016-Feb-04 11:33N 36°52' E 014°00'1111.2
2016-Feb-04 10:33N 36°46' E 014°12'1212.3
2016-Feb-04 09:33N 36°41' E 014°26'1212.0
2016-Feb-04 08:32N 36°37' E 014°41'1312.2
2016-Feb-04 07:30N 36°34' E 014°56'1312.5
2016-Feb-04 06:30N 36°31' E 015°11'  
Track history (hours):
 
Tides and Currents Weather Stations Pressure Air Temp Water Temp Dewpoint Dewpoint Depression Visibility Wind Speed Wind Dir Waves Ship Positions

Valtellina

Last reported at 2016-Feb-14 02:28 UTC. Time now 2016-Feb-14 06:00 UTC.
Position N 36°07' W 005°15'.

Length 184 m; draft 7.5 m.

Type: Tanker. MMSI: 247243900.

Date/timePositionNaut miles runAvg speedWind from/ knotsBaromVisibWave heightAir tempDewpointWater temp
2016-Feb-14 02:28N 36°07' W 005°15'4 3.0
2016-Feb-14 01:13N 36°05' W 005°19'0 0.4
2016-Feb-14 00:33N 36°05' W 005°19'4 3.5
2016-Feb-13 23:33N 36°05' W 005°15'2 2.1
2016-Feb-13 22:31N 36°05' W 005°12'3 2.8
2016-Feb-13 21:31N 36°08' W 005°12'3 2.6
2016-Feb-13 20:33N 36°07' W 005°15'4 3.8
2016-Feb-13 19:32N 36°04' W 005°18'1 0.9
2016-Feb-13 18:33N 36°04' W 005°17'1 0.6
2016-Feb-13 17:33N 36°04' W 005°16'2 2.5
2016-Feb-13 16:33N 36°05' W 005°13'216 9.8
2016-Feb-12 18:33N 36°43' W 000°49'10 9.3
2016-Feb-12 17:31N 36°45' W 000°37'29 9.7
2016-Feb-12 14:33N 36°53' W 000°02'41811.2
2016-Feb-11 01:23N 38°38' E 008°29'911.4
2016-Feb-11 00:33N 38°40' E 008°41'1111.4
2016-Feb-10 23:33N 38°44' E 008°55'1211.6
2016-Feb-10 22:32N 38°48' E 009°09'1211.7
2016-Feb-10 21:33N 38°53' E 009°22'  
2016-Feb-07 15:25N 38°59' E 009°42'1311.6
2016-Feb-07 14:19N 39°00' E 009°26'912.3
2016-Feb-07 13:33N 39°03' E 009°15'10 9.5
2016-Feb-07 12:33N 39°05' E 009°03'0 0.3
2016-Feb-07 11:33N 39°05' E 009°02'0 0.0
2016-Feb-07 10:33N 39°05' E 009°02'0 0.0
2016-Feb-07 09:33N 39°05' E 009°02'0 0.0
2016-Feb-07 08:33N 39°05' E 009°02'0 0.0
2016-Feb-07 07:33N 39°05' E 009°02'0 0.0
2016-Feb-07 06:33N 39°05' E 009°02'0 0.0
2016-Feb-07 05:33N 39°05' E 009°02'0 0.0
2016-Feb-07 04:33N 39°05' E 009°02'0 0.0
2016-Feb-07 03:33N 39°05' E 009°02'0 0.0
2016-Feb-07 02:33N 39°05' E 009°02'0 0.0
2016-Feb-07 01:30N 39°05' E 009°02'0 0.0
2016-Feb-07 00:33N 39°05' E 009°02'0 0.0
2016-Feb-06 23:33N 39°05' E 009°02'0 0.0
2016-Feb-06 22:33N 39°05' E 009°02'0 0.0
2016-Feb-06 21:33N 39°05' E 009°02'0 0.0
2016-Feb-06 20:33N 39°05' E 009°02'0 0.0
2016-Feb-06 19:33N 39°05' E 009°02'0 0.0
2016-Feb-06 18:33N 39°05' E 009°02'0 0.0
2016-Feb-06 17:33N 39°05' E 009°02'0 0.0
2016-Feb-06 16:33N 39°05' E 009°02'0 0.0
2016-Feb-06 15:30N 39°05' E 009°02'0 0.0
2016-Feb-06 14:33N 39°05' E 009°02'0 0.0
2016-Feb-06 13:33N 39°05' E 009°02'0 0.0
2016-Feb-06 12:33N 39°05' E 009°02'0 0.0
2016-Feb-06 11:33N 39°05' E 009°02'0 0.0
2016-Feb-06 10:33N 39°05' E 009°02'0 0.0
2016-Feb-06 09:33N 39°05' E 009°02'1 1.3
2016-Feb-06 08:33N 39°05' E 009°04'0 0.4
2016-Feb-06 07:31N 39°04' E 009°03'0 0.1
2016-Feb-06 06:31N 39°04' E 009°03'0 0.1
2016-Feb-06 05:31N 39°04' E 009°03'0 0.0
2016-Feb-06 04:31N 39°04' E 009°03'0 0.0
2016-Feb-06 03:31N 39°04' E 009°03'0 0.0
2016-Feb-06 02:28N 39°04' E 009°03'0 0.0
2016-Feb-06 01:31N 39°04' E 009°03'0 0.0
2016-Feb-06 00:31N 39°04' E 009°03'0 0.0
2016-Feb-05 23:31N 39°04' E 009°03'0 0.0
2016-Feb-05 22:31N 39°04' E 009°03'0 0.0
2016-Feb-05 21:31N 39°04' E 009°03'0 0.0
2016-Feb-05 20:31N 39°04' E 009°03'0 0.0
2016-Feb-05 19:31N 39°04' E 009°03'0 0.0
2016-Feb-05 18:31N 39°04' E 009°03'0 0.0
2016-Feb-05 17:31N 39°04' E 009°03'0 0.0
2016-Feb-05 16:31N 39°04' E 009°03'0 0.0
2016-Feb-05 15:31N 39°04' E 009°03'0 0.0
2016-Feb-05 14:31N 39°04' E 009°03'0 0.0
2016-Feb-05 13:31N 39°04' E 009°03'0 0.0
2016-Feb-05 12:31N 39°04' E 009°03'2 1.8
2016-Feb-05 11:33N 39°04' E 009°05'1111.4
2016-Feb-05 10:33N 38°57' E 009°17'1312.4
2016-Feb-05 09:31N 38°49' E 009°31'12811.6
2016-Feb-04 22:33N 37°48' E 011°53'1410.2
2016-Feb-04 21:12N 37°39' E 012°07'710.8
2016-Feb-04 20:31N 37°36' E 012°15'7410.4
2016-Feb-04 13:23N 37°02' E 013°38'911.3
2016-Feb-04 12:33N 36°58' E 013°49'1111.2
2016-Feb-04 11:33N 36°52' E 014°00'1111.2
2016-Feb-04 10:33N 36°46' E 014°12'1212.3
2016-Feb-04 09:33N 36°41' E 014°26'1212.0
2016-Feb-04 08:32N 36°37' E 014°41'1312.2
2016-Feb-04 07:30N 36°34' E 014°56'1312.5
2016-Feb-04 06:30N 36°31' E 015°11'  

Dump ship's entire track history